createdAt,value
2018-07-13T00:02:25.361Z,1.50
2018-07-13T00:07:28.678Z,1.40
2018-07-13T00:12:32.041Z,1.57
2018-07-13T00:17:35.415Z,1.50
2018-07-13T00:22:38.726Z,1.93
2018-07-13T00:27:49.645Z,1.67
2018-07-13T00:32:52.987Z,2.03
2018-07-13T00:37:56.094Z,1.60
2018-07-13T00:42:59.436Z,2.30
2018-07-13T00:48:02.771Z,1.93
2018-07-13T00:53:06.145Z,1.40
2018-07-13T00:58:09.497Z,1.60
2018-07-13T01:03:12.837Z,1.80
2018-07-13T01:08:16.233Z,2.10
2018-07-13T01:13:19.928Z,1.43
2018-07-13T01:18:23.456Z,1.63
2018-07-13T01:23:26.789Z,1.67
2018-07-13T01:28:30.117Z,1.77
2018-07-13T01:33:33.461Z,2.00
2018-07-13T01:38:36.785Z,1.87
2018-07-13T01:43:40.150Z,2.40
2018-07-13T01:48:43.494Z,2.20
2018-07-13T01:53:46.854Z,1.70
2018-07-13T01:58:50.244Z,1.60
2018-07-13T02:03:53.589Z,1.67
2018-07-13T02:08:56.924Z,1.60
2018-07-13T02:14:00.283Z,1.90
2018-07-13T02:19:03.646Z,2.10
2018-07-13T02:24:06.972Z,2.20
2018-07-13T02:29:10.295Z,1.90
2018-07-13T02:34:13.633Z,1.60
2018-07-13T02:39:16.981Z,1.77
2018-07-13T02:44:20.349Z,1.80
2018-07-13T02:49:23.709Z,2.60
2018-07-13T02:54:27.069Z,1.80
2018-07-13T02:59:30.388Z,2.30
2018-07-13T03:04:33.731Z,3.47
2018-07-13T03:09:37.052Z,2.20
2018-07-13T03:14:40.395Z,2.40
2018-07-13T03:19:43.728Z,2.60
2018-07-13T03:24:47.054Z,2.27
2018-07-13T03:29:50.372Z,2.37
2018-07-13T03:34:53.684Z,2.10
2018-07-13T03:39:57.004Z,2.30
2018-07-13T03:45:00.342Z,2.03
2018-07-13T03:50:03.753Z,1.20
2018-07-13T03:55:07.098Z,2.00
2018-07-13T04:00:11.304Z,1.87
2018-07-13T04:05:14.720Z,2.00
2018-07-13T04:10:18.074Z,2.17
2018-07-13T04:15:21.429Z,1.83
2018-07-13T04:20:24.784Z,2.07
2018-07-13T04:25:28.157Z,2.10
2018-07-13T04:30:31.629Z,2.33
2018-07-13T04:35:34.969Z,2.00
2018-07-13T04:40:38.302Z,1.80
2018-07-13T04:45:41.747Z,2.20
2018-07-13T04:50:45.118Z,2.60
2018-07-13T04:55:48.575Z,2.27
2018-07-13T05:00:51.970Z,2.30
2018-07-13T05:05:55.339Z,2.50
2018-07-13T05:10:58.721Z,2.60
2018-07-13T05:16:02.093Z,2.53
2018-07-13T05:21:05.491Z,3.13
2018-07-13T05:26:08.952Z,3.43
2018-07-13T05:31:12.897Z,3.83
2018-07-13T05:36:16.277Z,3.00
2018-07-13T05:41:20.569Z,3.10
2018-07-13T05:46:23.996Z,3.40
2018-07-13T05:51:27.396Z,3.83
2018-07-13T05:56:30.837Z,3.10
2018-07-13T06:01:34.234Z,3.40
2018-07-13T06:06:37.626Z,3.37
2018-07-13T06:11:42.001Z,3.93
2018-07-13T06:16:45.342Z,3.60
2018-07-13T06:21:48.784Z,3.60
2018-07-13T06:26:52.302Z,3.37
2018-07-13T06:31:55.648Z,3.73
2018-07-13T06:36:59.057Z,4.10
2018-07-13T06:42:02.116Z,4.23
2018-07-13T06:47:05.608Z,4.73
2018-07-13T06:52:08.981Z,3.90
2018-07-13T06:58:18.721Z,4.13
2018-07-13T07:03:22.729Z,4.13
2018-07-13T07:08:26.115Z,3.97
2018-07-13T07:13:35.295Z,3.90
2018-07-13T07:18:38.667Z,3.90
2018-07-13T07:23:41.756Z,4.00
2018-07-13T07:28:45.110Z,3.80
2018-07-13T07:33:48.491Z,4.30
2018-07-13T07:38:51.889Z,3.93
2018-07-13T07:43:55.373Z,4.07
2018-07-13T07:48:58.693Z,3.93
2018-07-13T07:54:02.049Z,4.63
2018-07-13T07:59:05.497Z,4.40
2018-07-13T08:04:08.808Z,4.83
2018-07-13T08:09:12.193Z,3.37
2018-07-13T08:14:15.680Z,3.50
2018-07-13T08:19:19.069Z,3.60
2018-07-13T08:24:23.429Z,3.60
2018-07-13T08:29:30.499Z,3.17
2018-07-13T08:34:33.909Z,3.77
2018-07-13T08:39:37.356Z,3.40
2018-07-13T08:44:40.778Z,3.50
2018-07-13T08:49:44.196Z,3.13
2018-07-13T08:54:47.705Z,3.47
2018-07-13T08:59:51.131Z,3.17
2018-07-13T09:05:05.504Z,2.83
2018-07-13T09:10:11.102Z,3.00
2018-07-13T09:15:14.753Z,2.73
2018-07-13T09:20:18.209Z,3.60
2018-07-13T09:25:21.668Z,2.87
2018-07-13T09:30:25.100Z,3.20
2018-07-13T09:35:28.537Z,2.80
2018-07-13T09:40:32.029Z,2.73
2018-07-13T09:45:35.648Z,3.10
2018-07-13T09:50:39.097Z,3.00
2018-07-13T09:55:42.546Z,3.07
2018-07-13T10:00:51.328Z,2.90
2018-07-13T10:05:54.755Z,3.17
2018-07-13T10:10:58.249Z,3.00
2018-07-13T10:16:01.792Z,2.83
2018-07-13T10:21:06.975Z,3.27
2018-07-13T10:26:12.986Z,3.00
2018-07-13T10:31:16.813Z,3.07
2018-07-13T10:36:20.480Z,2.73
2018-07-13T10:41:24.150Z,2.50
2018-07-13T10:46:27.684Z,2.70
2018-07-13T10:51:31.204Z,2.87
2018-07-13T10:56:34.885Z,2.55
2018-07-13T11:01:38.336Z,2.70
2018-07-13T11:06:42.453Z,2.87
2018-07-13T11:11:46.050Z,2.75
2018-07-13T11:16:49.586Z,2.72
2018-07-13T11:21:53.395Z,2.75
2018-07-13T11:27:00.054Z,2.52
2018-07-13T11:32:03.717Z,2.05
2018-07-13T11:37:07.457Z,2.25
2018-07-13T11:42:13.722Z,3.20
2018-07-13T11:47:17.428Z,3.15
2018-07-13T11:52:21.082Z,2.93
2018-07-13T11:57:24.749Z,2.00
2018-07-13T12:02:28.151Z,2.23
2018-07-13T12:07:31.597Z,2.30
2018-07-13T12:12:34.998Z,2.07
2018-07-13T12:17:38.384Z,1.87
2018-07-13T12:22:41.808Z,1.90
2018-07-13T12:27:45.221Z,1.67
2018-07-13T12:32:48.657Z,2.30
2018-07-13T12:37:52.148Z,2.00
2018-07-13T12:42:55.556Z,2.57
2018-07-13T12:47:58.986Z,1.93
2018-07-13T12:53:03.077Z,1.87
2018-07-13T12:58:06.620Z,1.90
2018-07-13T13:03:10.094Z,2.07
2018-07-13T13:08:13.491Z,2.20
2018-07-13T13:13:16.903Z,2.23
2018-07-13T13:18:20.312Z,2.00
2018-07-13T13:23:23.712Z,1.93
2018-07-13T13:28:27.116Z,2.33
2018-07-13T13:33:30.560Z,2.30
2018-07-13T13:38:33.945Z,2.20
2018-07-13T13:43:37.337Z,2.57
2018-07-13T13:48:41.131Z,2.37
2018-07-13T13:53:44.305Z,2.37
2018-07-13T13:58:47.793Z,2.43
2018-07-13T14:03:51.232Z,2.67
2018-07-13T14:08:54.723Z,2.43
2018-07-13T14:13:58.189Z,2.50
2018-07-13T14:19:01.320Z,2.20
2018-07-13T14:24:04.720Z,2.30
2018-07-13T14:29:08.227Z,2.03
2018-07-13T14:34:11.646Z,2.30
2018-07-13T14:39:15.117Z,2.07
2018-07-13T14:44:18.574Z,2.00
2018-07-13T14:49:22.035Z,2.00
2018-07-13T14:54:25.449Z,1.90
2018-07-13T14:59:28.868Z,2.53
2018-07-13T15:04:32.365Z,2.20
2018-07-13T15:09:35.797Z,2.43
2018-07-13T15:14:39.285Z,2.03
2018-07-13T15:19:42.792Z,2.13
2018-07-13T15:24:46.243Z,2.23
2018-07-13T15:29:49.758Z,2.03
2018-07-13T15:34:53.229Z,1.90
2018-07-13T15:39:56.869Z,2.80
2018-07-13T15:45:00.385Z,2.27
2018-07-13T15:50:03.959Z,2.37
2018-07-13T15:55:07.604Z,2.13
2018-07-13T16:00:11.095Z,1.83
2018-07-13T16:05:14.635Z,2.07
2018-07-13T16:10:18.097Z,2.30
2018-07-13T16:15:22.569Z,1.90
2018-07-13T16:20:26.041Z,2.53
2018-07-13T16:25:30.949Z,2.40
2018-07-13T16:30:34.486Z,2.00
2018-07-13T16:35:37.946Z,2.20
2018-07-13T16:40:43.509Z,2.30
2018-07-13T16:45:46.925Z,2.27
2018-07-13T16:50:50.353Z,2.10
2018-07-13T16:55:53.768Z,2.30
2018-07-13T17:00:57.235Z,5.70
2018-07-13T17:06:00.720Z,2.40
2018-07-13T17:11:04.174Z,2.17
2018-07-13T17:16:07.649Z,2.10
2018-07-13T17:21:11.151Z,2.60
2018-07-13T17:26:14.755Z,2.13
2018-07-13T17:31:18.268Z,2.10
2018-07-13T17:36:21.746Z,2.40
2018-07-13T17:41:25.208Z,1.87
2018-07-13T17:46:28.802Z,2.37
2018-07-13T17:51:32.363Z,2.13
2018-07-13T17:56:35.948Z,2.03
2018-07-13T18:01:39.425Z,2.13
2018-07-13T18:06:42.960Z,2.17
2018-07-13T18:11:46.463Z,2.30
2018-07-13T18:16:49.994Z,1.93
2018-07-13T18:21:53.583Z,2.20
2018-07-13T18:26:57.250Z,2.43
2018-07-13T18:32:00.818Z,2.30
2018-07-13T18:37:04.325Z,1.70
2018-07-13T18:42:07.809Z,2.10
2018-07-13T18:47:14.060Z,2.10
2018-07-13T18:52:27.014Z,2.03
2018-07-13T18:57:31.570Z,2.27
2018-07-13T19:02:35.002Z,1.90
2018-07-13T19:07:38.413Z,1.90
2018-07-13T19:12:41.888Z,2.10
2018-07-13T19:17:45.345Z,2.53
2018-07-13T19:22:48.840Z,2.13
2018-07-13T19:27:52.213Z,2.00
2018-07-13T19:32:55.694Z,1.97
2018-07-13T19:37:59.163Z,1.97
2018-07-13T19:43:02.298Z,2.10
2018-07-13T19:48:06.214Z,1.90
2018-07-13T19:53:09.630Z,2.00
2018-07-13T19:58:13.089Z,2.10
2018-07-13T20:03:16.585Z,2.27
2018-07-13T20:08:20.033Z,2.53
2018-07-13T20:13:23.504Z,2.33
2018-07-13T20:18:27.008Z,2.13
2018-07-13T20:23:30.448Z,2.33
2018-07-13T20:28:33.859Z,2.17
2018-07-13T20:33:38.117Z,2.17
2018-07-13T20:38:41.550Z,2.37
2018-07-13T20:43:44.936Z,2.00
2018-07-13T20:48:48.452Z,1.83
2018-07-13T20:53:51.865Z,1.80
2018-07-13T20:58:55.276Z,1.87
2018-07-13T21:03:59.034Z,2.03
2018-07-13T21:09:02.512Z,2.00
2018-07-13T21:14:05.944Z,1.73
2018-07-13T21:19:09.384Z,2.03
2018-07-13T21:24:12.793Z,1.60
2018-07-13T21:29:16.221Z,1.80
2018-07-13T21:34:19.647Z,1.80
2018-07-13T21:39:23.048Z,1.83
2018-07-13T21:44:26.441Z,2.30
2018-07-13T21:49:29.865Z,1.50
2018-07-13T21:54:33.261Z,1.90
2018-07-13T21:59:36.649Z,2.10
2018-07-13T22:04:40.204Z,1.77
2018-07-13T22:09:43.597Z,1.97
2018-07-13T22:14:47.065Z,2.40
2018-07-13T22:19:50.604Z,2.03
2018-07-13T22:24:54.015Z,1.80
2018-07-13T22:29:57.406Z,1.83
2018-07-13T22:35:00.838Z,2.07
2018-07-13T22:40:04.249Z,1.80
2018-07-13T22:45:07.637Z,1.87
2018-07-13T22:50:11.045Z,1.90
2018-07-13T22:55:14.611Z,1.90
2018-07-13T23:00:18.011Z,1.83
2018-07-13T23:05:21.400Z,1.83
2018-07-13T23:10:24.775Z,2.00
2018-07-13T23:15:28.223Z,1.77
2018-07-13T23:20:31.604Z,1.83
2018-07-13T23:25:35.009Z,2.10
2018-07-13T23:30:38.545Z,1.97
2018-07-13T23:35:41.946Z,1.53
2018-07-13T23:40:45.354Z,1.93
2018-07-13T23:45:48.736Z,1.83
2018-07-13T23:50:52.136Z,1.80
2018-07-13T23:55:55.526Z,1.90
